WetterOnline ( https://www.wetteronline.de )

Wetter aktuell Schmallenberg

Aktuelles Wetter: Kahler Asten (841m)

6-stündlich | Neueste Meldungen
Ortszeit Temperatur Wetter
Mi, 25.05. 2:00 6.5° C wolkig
Di, 24.05. 20:00 8.5° C leichter Regen
Di, 24.05. 14:00 9.5° C leichter Regen
Di, 24.05. 8:00 9.2° C Regen
Di, 24.05. 2:00 9.2° C Nebel
Mo, 23.05. 20:00 14.8° C leichter Regen
Mo, 23.05. 14:00 16.0° C leicht bewölkt
Mo, 23.05. 8:00 11.3° C bewölkt
Ortszeit Temperatur Wetter
Mi, 25.05. 5:00 6.0° C leicht bewölkt
Mi, 25.05. 4:50 6.0° C leicht bewölkt
Mi, 25.05. 4:40 6.2° C leicht bewölkt
Mi, 25.05. 4:30 6.4° C wolkig
Mi, 25.05. 4:20 6.4° C wolkig
Mi, 25.05. 4:10 6.3° C bewölkt
Mi, 25.05. 4:00 6.2° C wolkig
Mi, 25.05. 3:30 6.3° C wolkig
Mi, 25.05. 3:00 6.2° C wolkig
Mi, 25.05. 2:30 6.6° C bedeckt
Mi, 25.05. 2:00 6.5° C wolkig
Ortszeit Relative Feuchte Sichtweite
Mi, 25.05. 2:00 93% 35 km
Di, 24.05. 20:00 84% 19 km
Di, 24.05. 14:00 83% 30 km
Di, 24.05. 8:00 99% 0.5 km
Di, 24.05. 2:00 100% <100 m
Mo, 23.05. 20:00 96% 5.0 km
Mo, 23.05. 14:00 67% >70 km
Mo, 23.05. 8:00 70% 55 km
Ortszeit Relative Feuchte Sichtweite
Mi, 25.05. 5:00 91% 45 km
Mi, 25.05. 4:50 91% -
Mi, 25.05. 4:40 90% -
Mi, 25.05. 4:30 88% >70 km
Mi, 25.05. 4:20 88% -
Mi, 25.05. 4:10 88% -
Mi, 25.05. 4:00 89% >70 km
Mi, 25.05. 3:30 89% 55 km
Mi, 25.05. 3:00 91% 45 km
Mi, 25.05. 2:30 90% 50 km
Mi, 25.05. 2:00 93% 35 km
Ortszeit Niederschlagsmenge Niederschlagsart
Mi, 25.05. 2:00 0.1 l/m2 in 6 Std. Regen
Di, 24.05. 20:00 7 l/m2 in 12 Std. Regen
Di, 24.05. 14:00 6 l/m2 in 6 Std. Regen
Di, 24.05. 8:00 2 l/m2 in 12 Std. Regen
Di, 24.05. 2:00 2 l/m2 in 6 Std. Regen
Mo, 23.05. 20:00 4 l/m2 in 12 Std. Regen
Mo, 23.05. 14:00 0.0 l/m2 in 6 Std. -
Mo, 23.05. 8:00 0.0 l/m2 in 12 Std. -
Ortszeit Niederschlagsmenge Niederschlagsart
Mi, 25.05. 5:00 0.0 l/m2 in 1 Std. -
Mi, 25.05. 4:50 keine Meldung -
Mi, 25.05. 4:40 keine Meldung -
Mi, 25.05. 4:30 0.0 l/m2 in 1 Std. -
Mi, 25.05. 4:20 keine Meldung -
Mi, 25.05. 4:10 keine Meldung -
Mi, 25.05. 4:00 0.0 l/m2 in 1 Std. -
Mi, 25.05. 3:30 0.0 l/m2 in 1 Std. -
Mi, 25.05. 3:00 0.0 l/m2 in 1 Std. -
Mi, 25.05. 2:30 0.0 l/m2 in 1 Std. -
Mi, 25.05. 2:00 0.1 l/m2 in 1 Std. Regen
Ortszeit Stärke Spitze Richtung
km/h Bft. km/h Grad Sektor
Mi, 25.05. 2:00 14 3 29 230° SW
Di, 24.05. 20:00 17 3 52 240° SW
Di, 24.05. 14:00 29 5 54 250° W
Di, 24.05. 8:00 25 4 54 200° S
Di, 24.05. 2:00 35 5 65 260° W
Mo, 23.05. 20:00 22 4 50 210° SW
Mo, 23.05. 14:00 25 4 43 140° SO
Mo, 23.05. 8:00 26 4 37 130° SO
Ortszeit Stärke Spitze Richtung
km/h Bft. km/h Grad Sektor
Mi, 25.05. 5:00 19 3 26 260° W
Mi, 25.05. 4:50 19 3 - 260° W
Mi, 25.05. 4:40 22 4 - 260° W
Mi, 25.05. 4:30 20 4 26 250° W
Mi, 25.05. 4:20 20 4 - 250° W
Mi, 25.05. 4:10 20 4 - 250° W
Mi, 25.05. 4:00 19 3 28 250° W
Mi, 25.05. 3:30 18 3 25 250° W
Mi, 25.05. 3:00 14 3 22 240° SW
Mi, 25.05. 2:30 17 3 20 230° SW
Mi, 25.05. 2:00 14 3 29 230° SW
Ortszeit Untergrenze Bedeckung Gattung
total tief tief mittel hoch
Mi, 25.05. 2:00 2100 m 8/8 1/8 - - -
Di, 24.05. 20:00 1050 m 8/8 7/8 - - -
Di, 24.05. 14:00 510 m 6/8 6/8 - - -
Di, 24.05. 8:00 <30 m 7/8 0/8 - - -
Di, 24.05. 2:00 <30 m 8/8 0/8 - - -
Mo, 23.05. 20:00 120 m 8/8 8/8 - - -
Mo, 23.05. 14:00 1260 m 7/8 1/8 - - -
Mo, 23.05. 8:00 2100 m 8/8 4/8 - - -
Ortszeit Bedeckungsgrad in Achtel und Wolkenuntergrenze
Mi, 25.05. 5:00 3(6000m)
Mi, 25.05. 4:50 3(6000m)
Mi, 25.05. 4:40 2
Mi, 25.05. 4:30 4(1800m) 7(4800m) 7(5400m)
Mi, 25.05. 4:20 4(1800m) 7(4800m) 7(5400m)
Mi, 25.05. 4:10 7
Mi, 25.05. 4:00 2(2100m) 6(5400m) 6(6600m)
Mi, 25.05. 3:30 2(1800m) 8(5400m) 8(6300m)
Mi, 25.05. 3:00 1(2100m) 8(3300m) 8(4200m)
Mi, 25.05. 2:30 8(3600m)
Mi, 25.05. 2:00 1(2100m) 8(3600m) 8(4800m)
Ortszeit Stationsdruck (hPa) Tendenz (hPa in 3 Std.)
Mi, 25.05. 2:00 914 + 0,7
Di, 24.05. 20:00 912 + 1,5
Di, 24.05. 14:00 909 + 2,0
Di, 24.05. 8:00 905 + 0,3
Di, 24.05. 2:00 905 + 1,9
Mo, 23.05. 20:00 903 - 1,8
Mo, 23.05. 14:00 907 - 1,5
Mo, 23.05. 8:00 910 - 1,8
Ortszeit Stationsdruck (hPa) Tendenz (hPa in 3 Std.)
Mi, 25.05. 5:00 915 + 0,7
Mi, 25.05. 4:50 915 keine Meldung
Mi, 25.05. 4:40 915 keine Meldung
Mi, 25.05. 4:30 914 + 0,7
Mi, 25.05. 4:20 914 keine Meldung
Mi, 25.05. 4:10 914 keine Meldung
Mi, 25.05. 4:00 914 + 0,6
Mi, 25.05. 3:30 914 + 0,5
Mi, 25.05. 3:00 914 + 0,5
Mi, 25.05. 2:30 914 + 0,5
Mi, 25.05. 2:00 914 + 0,7
Ortszeit Schneehöhe (cm)
Mi, 25.05. 2:00 0
Di, 24.05. 20:00 0
Di, 24.05. 14:00 0
Di, 24.05. 8:00 0
Di, 24.05. 2:00 0
Mo, 23.05. 20:00 0
Mo, 23.05. 14:00 0
Mo, 23.05. 8:00 0
Ortszeit Schneehöhe (cm)
Mi, 25.05. 5:00 0
Mi, 25.05. 4:50 0
Mi, 25.05. 4:40 0
Mi, 25.05. 4:30 0
Mi, 25.05. 4:20 0
Mi, 25.05. 4:10 0
Mi, 25.05. 4:00 0
Mi, 25.05. 3:30 0
Mi, 25.05. 3:00 0
Mi, 25.05. 2:30 0
Mi, 25.05. 2:00 0
Link zu dieser Seite / Seite empfehlen

Das Wetter in ...